createdAt,value
2019-03-16T00:00:03.664Z,3
2019-03-16T00:01:02.466Z,1
2019-03-16T00:02:01.661Z,3
2019-03-16T00:03:01.907Z,4
2019-03-16T00:04:02.149Z,2
2019-03-16T00:05:02.445Z,2
2019-03-16T00:06:02.574Z,2
2019-03-16T00:07:01.721Z,2
2019-03-16T00:08:01.987Z,2
2019-03-16T00:09:02.245Z,2
2019-03-16T00:10:02.563Z,3
2019-03-16T00:11:01.718Z,2
2019-03-16T00:12:02.255Z,2
2019-03-16T00:13:02.155Z,1
2019-03-16T00:14:02.483Z,1
2019-03-16T00:15:02.679Z,1
2019-03-16T00:16:01.841Z,3
2019-03-16T00:17:02.555Z,4
2019-03-16T00:18:01.810Z,1
2019-03-16T00:19:02.593Z,1
2019-03-16T00:20:01.859Z,2
2019-03-16T00:21:02.089Z,1
2019-03-16T00:22:02.288Z,2
2019-03-16T00:23:02.582Z,1
2019-03-16T00:24:01.695Z,1
2019-03-16T00:25:02.018Z,2
2019-03-16T00:26:02.158Z,2
2019-03-16T00:27:02.393Z,4
2019-03-16T00:28:01.672Z,2
2019-03-16T00:29:01.920Z,1
2019-03-16T00:30:02.257Z,2
2019-03-16T00:31:02.454Z,1
2019-03-16T00:32:14.096Z,1
2019-03-16T00:33:01.859Z,3
2019-03-16T00:34:02.066Z,3
2019-03-16T00:35:02.322Z,3
2019-03-16T00:36:02.562Z,1
2019-03-16T00:37:01.729Z,0
2019-03-16T00:38:02.041Z,3
2019-03-16T00:39:02.228Z,1
2019-03-16T00:40:02.491Z,2
2019-03-16T00:41:02.654Z,2
2019-03-16T00:42:01.842Z,2
2019-03-16T00:43:02.128Z,2
2019-03-16T00:44:02.382Z,4
2019-03-16T00:45:02.626Z,0
2019-03-16T00:46:02.434Z,3
2019-03-16T00:47:01.674Z,2
2019-03-16T00:48:01.854Z,1
2019-03-16T00:49:02.240Z,3
2019-03-16T00:50:02.313Z,3
2019-03-16T00:51:02.626Z,3
2019-03-16T00:52:01.834Z,1
2019-03-16T00:53:02.102Z,2
2019-03-16T00:54:02.337Z,1
2019-03-16T00:55:02.578Z,1
2019-03-16T00:56:01.790Z,1
2019-03-16T00:57:02.059Z,3
2019-03-16T00:58:02.285Z,1
2019-03-16T00:59:02.584Z,2
2019-03-16T01:00:03.800Z,1
2019-03-16T01:01:02.582Z,3
2019-03-16T01:02:01.808Z,3
2019-03-16T01:03:02.046Z,1
2019-03-16T01:04:02.281Z,2
2019-03-16T01:05:02.534Z,1
2019-03-16T01:06:01.748Z,2
2019-03-16T01:07:01.941Z,3
2019-03-16T01:08:02.255Z,1
2019-03-16T01:09:02.497Z,1
2019-03-16T01:10:01.670Z,3
2019-03-16T01:11:01.816Z,3
2019-03-16T01:12:01.989Z,2
2019-03-16T01:13:02.179Z,2
2019-03-16T01:14:02.463Z,4
2019-03-16T01:15:01.764Z,1
2019-03-16T01:16:01.918Z,2
2019-03-16T01:17:02.151Z,3
2019-03-16T01:18:02.601Z,3
2019-03-16T01:19:01.872Z,2
2019-03-16T01:20:02.137Z,3
2019-03-16T01:21:02.376Z,2
2019-03-16T01:22:02.671Z,2
2019-03-16T01:23:01.825Z,3
2019-03-16T01:24:02.029Z,3
2019-03-16T01:25:02.337Z,2
2019-03-16T01:26:02.503Z,3
2019-03-16T01:27:01.831Z,2
2019-03-16T01:28:01.937Z,1
2019-03-16T01:29:02.150Z,2
2019-03-16T01:30:02.401Z,3
2019-03-16T01:31:01.625Z,2
2019-03-16T01:32:01.864Z,2
2019-03-16T01:33:02.036Z,3
2019-03-16T01:34:02.318Z,3
2019-03-16T01:35:02.618Z,2
2019-03-16T01:36:01.790Z,4
2019-03-16T01:37:02.096Z,2
2019-03-16T01:38:02.434Z,2
2019-03-16T01:39:02.440Z,2
2019-03-16T01:40:01.763Z,2
2019-03-16T01:41:01.931Z,3
2019-03-16T01:42:02.213Z,3
2019-03-16T01:43:02.419Z,1
2019-03-16T01:44:01.724Z,3
2019-03-16T01:45:01.883Z,2
2019-03-16T01:46:02.055Z,2
2019-03-16T01:47:02.259Z,2
2019-03-16T01:48:02.465Z,3
2019-03-16T01:49:01.743Z,2
2019-03-16T01:50:02.047Z,2
2019-03-16T01:51:02.188Z,2
2019-03-16T01:52:02.446Z,2
2019-03-16T01:53:02.627Z,2
2019-03-16T01:54:01.799Z,2
2019-03-16T01:55:02.061Z,2
2019-03-16T01:56:02.309Z,2
2019-03-16T01:57:02.588Z,1
2019-03-16T01:58:01.743Z,2
2019-03-16T01:59:01.948Z,3
2019-03-16T02:00:04.824Z,1
2019-03-16T02:01:01.692Z,2
2019-03-16T02:02:01.995Z,3
2019-03-16T02:03:02.267Z,2
2019-03-16T02:04:02.432Z,2
2019-03-16T02:05:01.713Z,3
2019-03-16T02:06:01.874Z,3
2019-03-16T02:07:02.109Z,2
2019-03-16T02:08:02.325Z,2
2019-03-16T02:09:02.476Z,1
2019-03-16T02:10:01.691Z,2
2019-03-16T02:11:02.610Z,3
2019-03-16T02:12:01.722Z,4
2019-03-16T02:13:02.035Z,1
2019-03-16T02:14:02.081Z,1
2019-03-16T02:15:02.469Z,4
2019-03-16T02:16:11.857Z,2
2019-03-16T02:17:01.780Z,3
2019-03-16T02:18:02.101Z,3
2019-03-16T02:19:02.291Z,1
2019-03-16T02:20:02.631Z,2
2019-03-16T02:21:01.858Z,0
2019-03-16T02:22:02.022Z,3
2019-03-16T02:23:02.298Z,3
2019-03-16T02:24:02.540Z,2
2019-03-16T02:25:01.781Z,4
2019-03-16T02:26:02.112Z,4
2019-03-16T02:27:02.259Z,2
2019-03-16T02:28:02.502Z,0
2019-03-16T02:29:01.749Z,1
2019-03-16T02:30:01.987Z,2
2019-03-16T02:31:02.459Z,3
2019-03-16T02:32:02.484Z,2
2019-03-16T02:33:13.969Z,1
2019-03-16T02:34:02.045Z,2
2019-03-16T02:35:02.349Z,2
2019-03-16T02:36:02.555Z,0
2019-03-16T02:37:01.787Z,1
2019-03-16T02:38:01.979Z,2
2019-03-16T02:39:02.236Z,1
2019-03-16T02:40:02.449Z,1
2019-03-16T02:41:01.668Z,1
2019-03-16T02:42:02.008Z,1
2019-03-16T02:43:02.234Z,0
2019-03-16T02:44:02.379Z,1
2019-03-16T02:45:02.666Z,4
2019-03-16T02:46:01.826Z,2
2019-03-16T02:47:02.095Z,2
2019-03-16T02:48:02.279Z,1
2019-03-16T02:49:02.564Z,2
2019-03-16T02:50:01.811Z,3
2019-03-16T02:51:02.018Z,2
2019-03-16T02:52:02.466Z,2
2019-03-16T02:53:02.422Z,1
2019-03-16T02:54:01.657Z,1
2019-03-16T02:55:01.953Z,1
2019-03-16T02:56:02.151Z,2
2019-03-16T02:57:02.357Z,2
2019-03-16T02:58:02.554Z,2
2019-03-16T02:59:01.787Z,2
2019-03-16T03:00:05.101Z,2
2019-03-16T03:01:01.945Z,2
2019-03-16T03:02:02.213Z,0
2019-03-16T03:03:02.439Z,1
2019-03-16T03:04:02.597Z,1
2019-03-16T03:05:01.917Z,4
2019-03-16T03:06:02.042Z,2
2019-03-16T03:07:02.382Z,2
2019-03-16T03:08:02.579Z,3
2019-03-16T03:09:01.911Z,2
2019-03-16T03:10:02.178Z,4
2019-03-16T03:11:02.313Z,3
2019-03-16T03:12:02.562Z,3
2019-03-16T03:13:01.777Z,1
2019-03-16T03:14:02.538Z,1
2019-03-16T03:15:01.782Z,0
2019-03-16T03:16:02.017Z,1
2019-03-16T03:17:02.272Z,1
2019-03-16T03:18:02.472Z,2
2019-03-16T03:19:01.624Z,1
2019-03-16T03:20:01.985Z,4
2019-03-16T03:21:02.075Z,4
2019-03-16T03:22:02.296Z,2
2019-03-16T03:23:02.535Z,1
2019-03-16T03:24:01.693Z,3
2019-03-16T03:25:01.971Z,3
2019-03-16T03:26:02.227Z,2
2019-03-16T03:27:02.502Z,2
2019-03-16T03:28:02.489Z,2
2019-03-16T03:29:01.755Z,2
2019-03-16T03:30:02.015Z,1
2019-03-16T03:31:02.162Z,3
2019-03-16T03:32:02.439Z,3
2019-03-16T03:33:02.587Z,3
2019-03-16T03:34:03.382Z,2
2019-03-16T03:35:02.083Z,1
2019-03-16T03:36:02.180Z,2
2019-03-16T03:37:02.402Z,2
2019-03-16T03:38:01.628Z,3
2019-03-16T03:39:02.012Z,1
2019-03-16T03:40:02.114Z,2
2019-03-16T03:41:02.647Z,3
2019-03-16T03:42:02.535Z,2
2019-03-16T03:43:01.700Z,3
2019-03-16T03:44:02.567Z,1
2019-03-16T03:45:01.823Z,2
2019-03-16T03:46:02.042Z,3
2019-03-16T03:47:02.304Z,2
2019-03-16T03:48:02.487Z,3
2019-03-16T03:49:01.714Z,1
2019-03-16T03:50:01.998Z,5
2019-03-16T03:51:02.290Z,2
2019-03-16T03:52:02.590Z,3
2019-03-16T03:53:01.792Z,4
2019-03-16T03:54:02.078Z,2
2019-03-16T03:55:02.216Z,2
2019-03-16T03:56:02.391Z,2
2019-03-16T03:57:01.702Z,2
2019-03-16T03:58:01.909Z,4
2019-03-16T03:59:02.115Z,3
2019-03-16T04:00:02.400Z,2
2019-03-16T04:01:01.653Z,3
2019-03-16T04:02:01.898Z,4
2019-03-16T04:03:02.057Z,3
2019-03-16T04:04:16.371Z,2
2019-03-16T04:05:02.596Z,1
2019-03-16T04:06:01.750Z,2
2019-03-16T04:07:02.117Z,4
2019-03-16T04:08:02.225Z,4
2019-03-16T04:09:02.436Z,2
2019-03-16T04:10:01.756Z,2
2019-03-16T04:11:01.922Z,2
2019-03-16T04:12:02.172Z,2
2019-03-16T04:13:02.343Z,1
2019-03-16T04:14:02.623Z,1
2019-03-16T04:15:01.892Z,2
2019-03-16T04:16:02.021Z,1
2019-03-16T04:17:02.267Z,2
2019-03-16T04:18:02.522Z,2
2019-03-16T04:19:01.693Z,3
2019-03-16T04:20:01.978Z,3
2019-03-16T04:21:02.168Z,3
2019-03-16T04:22:02.386Z,2
2019-03-16T04:23:02.660Z,2
2019-03-16T04:24:01.953Z,2
2019-03-16T04:25:02.125Z,1
2019-03-16T04:26:02.376Z,1
2019-03-16T04:27:16.816Z,3
2019-03-16T04:28:01.761Z,2
2019-03-16T04:29:02.036Z,1
2019-03-16T04:30:02.354Z,3
2019-03-16T04:31:02.548Z,3
2019-03-16T04:32:01.710Z,4
2019-03-16T04:33:01.942Z,2
2019-03-16T04:34:02.210Z,2
2019-03-16T04:35:02.091Z,1
2019-03-16T04:36:02.358Z,0
2019-03-16T04:37:02.522Z,1
2019-03-16T04:38:01.741Z,0
2019-03-16T04:39:01.900Z,1
2019-03-16T04:40:02.211Z,2
2019-03-16T04:41:02.475Z,2
2019-03-16T04:42:01.689Z,1
2019-03-16T04:43:01.937Z,0
2019-03-16T04:44:02.111Z,1
2019-03-16T04:45:02.352Z,2
2019-03-16T04:46:02.644Z,2
2019-03-16T04:47:02.436Z,1
2019-03-16T04:48:01.677Z,4
2019-03-16T04:49:01.799Z,2
2019-03-16T04:50:02.147Z,1
2019-03-16T04:51:02.300Z,1
2019-03-16T04:52:02.488Z,1
2019-03-16T04:53:01.712Z,3
2019-03-16T04:54:01.919Z,2
2019-03-16T04:55:02.224Z,2
2019-03-16T04:56:02.413Z,2
2019-03-16T04:57:01.685Z,2
2019-03-16T04:58:01.927Z,3
2019-03-16T04:59:02.052Z,2
2019-03-16T05:00:04.161Z,2
2019-03-16T05:01:01.935Z,2
2019-03-16T05:02:02.152Z,2
2019-03-16T05:03:02.373Z,3
2019-03-16T05:04:02.560Z,3
2019-03-16T05:05:01.907Z,2
2019-03-16T05:06:02.035Z,3
2019-03-16T05:07:02.230Z,3
2019-03-16T05:08:02.447Z,2
2019-03-16T05:09:01.656Z,1
2019-03-16T05:10:01.915Z,1
2019-03-16T05:11:02.042Z,2
2019-03-16T05:12:02.287Z,2
2019-03-16T05:13:02.499Z,1
2019-03-16T05:14:01.727Z,2
2019-03-16T05:15:01.954Z,3
2019-03-16T05:16:02.225Z,2
2019-03-16T05:17:02.445Z,3
2019-03-16T05:18:01.637Z,2
2019-03-16T05:19:01.923Z,1
2019-03-16T05:20:02.179Z,2
2019-03-16T05:21:02.361Z,1
2019-03-16T05:22:02.584Z,1
2019-03-16T05:23:02.275Z,1
2019-03-16T05:24:03.358Z,2
2019-03-16T05:25:01.870Z,2
2019-03-16T05:26:01.969Z,2
2019-03-16T05:27:02.149Z,2
2019-03-16T05:28:02.392Z,2
2019-03-16T05:29:02.607Z,2
2019-03-16T05:30:01.854Z,2
2019-03-16T05:31:01.971Z,2
2019-03-16T05:32:02.189Z,2
2019-03-16T05:33:02.386Z,2
2019-03-16T05:34:02.604Z,2
2019-03-16T05:35:01.825Z,2
2019-03-16T05:36:02.017Z,2
2019-03-16T05:37:02.144Z,2
2019-03-16T05:38:02.495Z,2
2019-03-16T05:39:02.581Z,2
2019-03-16T05:40:01.825Z,2
2019-03-16T05:41:02.002Z,2
2019-03-16T05:42:05.732Z,2
2019-03-16T05:43:02.576Z,2
2019-03-16T05:44:01.774Z,2
2019-03-16T05:45:02.058Z,2
2019-03-16T05:46:02.276Z,2
2019-03-16T05:47:02.540Z,2
2019-03-16T05:48:01.812Z,2
2019-03-16T05:49:01.941Z,2
2019-03-16T05:50:02.165Z,2
2019-03-16T05:51:02.338Z,2
2019-03-16T05:52:02.505Z,2
2019-03-16T05:53:01.731Z,2
2019-03-16T05:54:02.018Z,2
2019-03-16T05:55:02.161Z,2
2019-03-16T05:56:02.379Z,2
2019-03-16T05:57:02.618Z,2
2019-03-16T05:58:01.843Z,2
2019-03-16T05:59:02.019Z,2
2019-03-16T06:00:03.634Z,2
2019-03-16T06:01:02.364Z,2
2019-03-16T06:02:02.646Z,2
2019-03-16T06:03:01.819Z,2
2019-03-16T06:04:02.066Z,2
2019-03-16T06:05:11.495Z,2
2019-03-16T06:06:02.517Z,2
2019-03-16T06:07:01.794Z,2
2019-03-16T06:08:02.052Z,2
2019-03-16T06:09:02.234Z,2
2019-03-16T06:10:02.559Z,2
2019-03-16T06:11:01.847Z,2
2019-03-16T06:12:01.968Z,2
2019-03-16T06:13:02.210Z,2
2019-03-16T06:14:02.415Z,2
2019-03-16T06:15:01.649Z,2
2019-03-16T06:16:01.899Z,2
2019-03-16T06:17:01.971Z,2
2019-03-16T06:18:02.205Z,2
2019-03-16T06:19:02.413Z,2
2019-03-16T06:20:01.772Z,2
2019-03-16T06:21:02.004Z,2
2019-03-16T06:22:02.132Z,2
2019-03-16T06:23:02.327Z,2
2019-03-16T06:24:02.342Z,2
2019-03-16T06:25:02.666Z,2
2019-03-16T06:26:01.757Z,2
2019-03-16T06:27:02.002Z,2
2019-03-16T06:28:02.223Z,2
2019-03-16T06:29:02.416Z,2
2019-03-16T06:30:01.686Z,2
2019-03-16T06:31:01.800Z,2
2019-03-16T06:32:02.120Z,2
2019-03-16T06:33:02.243Z,2
2019-03-16T06:34:02.469Z,2
2019-03-16T06:35:01.750Z,2
2019-03-16T06:36:01.880Z,2
2019-03-16T06:37:02.075Z,2
2019-03-16T06:38:02.164Z,2
2019-03-16T06:39:02.381Z,2
2019-03-16T06:40:02.655Z,2
2019-03-16T06:41:01.840Z,2
2019-03-16T06:42:02.036Z,2
2019-03-16T06:43:02.219Z,2
2019-03-16T06:44:02.431Z,2
2019-03-16T06:45:01.672Z,2
2019-03-16T06:46:01.860Z,2
2019-03-16T06:47:02.040Z,2
2019-03-16T06:48:02.265Z,2
2019-03-16T06:49:02.501Z,2
2019-03-16T06:50:01.921Z,2
2019-03-16T06:51:02.012Z,2
2019-03-16T06:52:02.151Z,2
2019-03-16T06:53:02.348Z,2
2019-03-16T06:54:02.600Z,2
2019-03-16T06:55:01.951Z,2
2019-03-16T06:56:02.096Z,2
2019-03-16T06:57:02.313Z,2
2019-03-16T06:58:02.546Z,2
2019-03-16T06:59:01.753Z,2
2019-03-16T07:00:04.240Z,2
2019-03-16T07:01:01.651Z,2
2019-03-16T07:02:01.900Z,2
2019-03-16T07:03:02.133Z,2
2019-03-16T07:04:02.372Z,2
2019-03-16T07:05:02.690Z,2
2019-03-16T07:06:01.895Z,2
2019-03-16T07:07:02.114Z,2
2019-03-16T07:08:02.326Z,2
2019-03-16T07:09:02.262Z,2
2019-03-16T07:10:02.434Z,2
2019-03-16T07:11:01.676Z,2
2019-03-16T07:12:01.812Z,2
2019-03-16T07:13:02.092Z,2
2019-03-16T07:14:01.637Z,2
2019-03-16T07:15:01.937Z,2
2019-03-16T07:16:02.151Z,2
2019-03-16T07:17:02.929Z,2
2019-03-16T07:18:02.497Z,2
2019-03-16T07:19:01.755Z,2
2019-03-16T07:20:02.019Z,2
2019-03-16T07:21:02.273Z,2
2019-03-16T07:22:02.569Z,2
2019-03-16T07:23:01.769Z,2
2019-03-16T07:24:01.889Z,2
2019-03-16T07:25:02.234Z,2
2019-03-16T07:26:15.409Z,2
2019-03-16T07:27:02.558Z,2
2019-03-16T07:28:01.700Z,2
2019-03-16T07:29:01.891Z,2
2019-03-16T07:30:02.134Z,2
2019-03-16T07:31:02.380Z,2
2019-03-16T07:32:01.741Z,2
2019-03-16T07:33:01.895Z,2
2019-03-16T07:34:02.059Z,2
2019-03-16T07:35:02.324Z,2
2019-03-16T07:36:02.585Z,2
2019-03-16T07:37:01.864Z,2
2019-03-16T07:38:02.018Z,2
2019-03-16T07:39:01.853Z,2
2019-03-16T07:40:02.312Z,2
2019-03-16T07:41:02.268Z,2
2019-03-16T07:42:02.451Z,2
2019-03-16T07:43:02.573Z,2
2019-03-16T07:44:01.810Z,2
2019-03-16T07:45:09.264Z,2
2019-03-16T07:46:02.234Z,2
2019-03-16T07:47:02.542Z,2
2019-03-16T07:48:02.619Z,2
2019-03-16T07:49:01.772Z,2
2019-03-16T07:50:02.041Z,2
2019-03-16T07:51:02.072Z,2
2019-03-16T07:52:02.313Z,2
2019-03-16T07:53:02.556Z,2
2019-03-16T07:54:02.466Z,2
2019-03-16T07:55:01.753Z,2
2019-03-16T07:56:01.913Z,2
2019-03-16T07:57:02.139Z,2
2019-03-16T07:58:02.389Z,2
2019-03-16T07:59:01.620Z,2
2019-03-16T08:00:03.783Z,2
2019-03-16T08:01:03.988Z,2
2019-03-16T08:02:02.456Z,2
2019-03-16T08:03:01.662Z,2
2019-03-16T08:04:01.919Z,2
2019-03-16T08:05:02.268Z,2
2019-03-16T08:06:02.496Z,2
2019-03-16T08:07:01.710Z,2
2019-03-16T08:08:01.891Z,2
2019-03-16T08:09:02.226Z,2
2019-03-16T08:10:03.813Z,2
2019-03-16T08:11:02.564Z,2
2019-03-16T08:12:01.743Z,2
2019-03-16T08:13:01.969Z,2
2019-03-16T08:14:02.151Z,2
2019-03-16T08:15:02.514Z,2
2019-03-16T08:16:02.674Z,2
2019-03-16T08:17:01.823Z,2
2019-03-16T08:18:02.056Z,2
2019-03-16T08:19:02.293Z,2
2019-03-16T08:20:02.588Z,2
2019-03-16T08:21:01.714Z,2
2019-03-16T08:22:01.859Z,2
2019-03-16T08:23:02.058Z,2
2019-03-16T08:24:02.298Z,2
2019-03-16T08:25:02.546Z,2
2019-03-16T08:26:01.869Z,2
2019-03-16T08:27:01.945Z,2
2019-03-16T08:28:02.199Z,2
2019-03-16T08:29:02.420Z,2
2019-03-16T08:30:01.678Z,2
2019-03-16T08:31:01.819Z,2
2019-03-16T08:32:02.015Z,2
2019-03-16T08:33:02.248Z,2
2019-03-16T08:34:02.418Z,2
2019-03-16T08:35:02.666Z,2
2019-03-16T08:36:01.862Z,2
2019-03-16T08:37:02.016Z,2
2019-03-16T08:38:02.227Z,2
2019-03-16T08:39:02.409Z,2
2019-03-16T08:40:01.696Z,2
2019-03-16T08:41:01.884Z,2
2019-03-16T08:42:01.988Z,2
2019-03-16T08:43:02.290Z,2
2019-03-16T08:44:02.469Z,2
2019-03-16T08:45:01.802Z,2
2019-03-16T08:46:01.890Z,2
2019-03-16T08:47:02.130Z,2
2019-03-16T08:48:03.039Z,2
2019-03-16T08:49:02.379Z,2
2019-03-16T08:50:06.998Z,2
2019-03-16T08:51:01.751Z,2
2019-03-16T08:52:02.025Z,2
2019-03-16T08:53:09.530Z,2
2019-03-16T08:54:02.312Z,2
2019-03-16T08:55:02.586Z,2
2019-03-16T08:56:01.790Z,2
2019-03-16T08:57:02.023Z,2
2019-03-16T08:58:06.783Z,2
2019-03-16T08:59:02.481Z,2
2019-03-16T09:00:04.218Z,2
2019-03-16T09:01:02.146Z,2
2019-03-16T09:02:02.300Z,2
2019-03-16T09:03:02.523Z,2
2019-03-16T09:04:01.773Z,2
2019-03-16T09:05:02.077Z,2
2019-03-16T09:06:02.181Z,2
2019-03-16T09:07:02.333Z,2
2019-03-16T09:08:09.915Z,2
2019-03-16T09:09:01.726Z,2
2019-03-16T09:10:02.040Z,2
2019-03-16T09:11:02.293Z,2
2019-03-16T09:12:02.435Z,2
2019-03-16T09:13:02.658Z,2
2019-03-16T09:14:01.923Z,2
2019-03-16T09:15:02.080Z,2
2019-03-16T09:16:02.333Z,2
2019-03-16T09:17:02.438Z,2
2019-03-16T09:18:01.657Z,2
2019-03-16T09:19:01.890Z,2
2019-03-16T09:20:02.148Z,2
2019-03-16T09:21:02.394Z,2
2019-03-16T09:22:02.172Z,2
2019-03-16T09:23:02.388Z,2
2019-03-16T09:24:02.135Z,2
2019-03-16T09:25:02.404Z,2
2019-03-16T09:26:02.670Z,2
2019-03-16T09:27:01.785Z,2
2019-03-16T09:28:01.968Z,2
2019-03-16T09:29:15.443Z,2
2019-03-16T09:30:02.484Z,2
2019-03-16T09:31:01.716Z,2
2019-03-16T09:32:01.767Z,2
2019-03-16T09:33:01.997Z,2
2019-03-16T09:34:02.135Z,2
2019-03-16T09:35:02.353Z,2
2019-03-16T09:36:02.535Z,2
2019-03-16T09:37:01.760Z,2
2019-03-16T09:38:01.942Z,2
2019-03-16T09:39:02.165Z,2
2019-03-16T09:40:02.435Z,2
2019-03-16T09:41:02.568Z,2
2019-03-16T09:42:01.678Z,2
2019-03-16T09:43:01.834Z,2
2019-03-16T09:44:02.512Z,2
2019-03-16T09:45:02.260Z,2
2019-03-16T09:46:02.481Z,2
2019-03-16T09:47:02.605Z,2
2019-03-16T09:48:01.824Z,2
2019-03-16T09:49:01.938Z,2
2019-03-16T09:50:02.189Z,2
2019-03-16T09:51:02.367Z,2
2019-03-16T09:52:02.407Z,2
2019-03-16T09:53:01.653Z,2
2019-03-16T09:54:02.152Z,2
2019-03-16T09:55:02.090Z,2
2019-03-16T09:56:02.246Z,2
2019-03-16T09:57:02.611Z,2
2019-03-16T09:58:01.677Z,2
2019-03-16T09:59:01.902Z,2
2019-03-16T10:00:05.158Z,2
2019-03-16T10:01:01.932Z,2
2019-03-16T10:02:02.094Z,2
2019-03-16T10:03:02.324Z,2
2019-03-16T10:04:02.454Z,2
2019-03-16T10:05:02.625Z,2
2019-03-16T10:06:01.889Z,2
2019-03-16T10:07:02.131Z,2
2019-03-16T10:08:02.342Z,7
2019-03-16T10:09:02.520Z,4
2019-03-16T10:10:01.803Z,3
2019-03-16T10:11:05.868Z,7
2019-03-16T10:12:02.105Z,4
2019-03-16T10:13:02.228Z,3
2019-03-16T10:14:07.926Z,7
2019-03-16T10:15:02.615Z,6
2019-03-16T10:16:01.835Z,4
2019-03-16T10:17:02.036Z,5
2019-03-16T10:18:02.236Z,4
2019-03-16T10:19:02.452Z,6
2019-03-16T10:20:01.712Z,4
2019-03-16T10:21:01.992Z,5
2019-03-16T10:22:02.170Z,5
2019-03-16T10:23:02.408Z,3
2019-03-16T10:24:02.528Z,4
2019-03-16T10:25:01.776Z,6
2019-03-16T10:26:02.097Z,5
2019-03-16T10:27:02.193Z,4
2019-03-16T10:28:02.506Z,3
2019-03-16T10:29:01.645Z,7
2019-03-16T10:30:01.944Z,5
2019-03-16T10:31:01.998Z,5
2019-03-16T10:32:02.131Z,5
2019-03-16T10:33:02.338Z,5
2019-03-16T10:34:02.660Z,6
2019-03-16T10:35:02.328Z,8
2019-03-16T10:36:02.251Z,4
2019-03-16T10:37:02.429Z,5
2019-03-16T10:38:01.667Z,4
2019-03-16T10:39:01.925Z,6
2019-03-16T10:40:02.076Z,7
2019-03-16T10:41:02.223Z,4
2019-03-16T10:42:02.384Z,5
2019-03-16T10:43:01.659Z,8
2019-03-16T10:44:01.862Z,4
2019-03-16T10:45:01.889Z,4
2019-03-16T10:46:02.135Z,4
2019-03-16T10:47:02.380Z,4
2019-03-16T10:48:01.620Z,3
2019-03-16T10:49:01.850Z,7
2019-03-16T10:50:02.591Z,5
2019-03-16T10:51:01.827Z,4
2019-03-16T10:52:02.145Z,8
2019-03-16T10:53:02.280Z,4
2019-03-16T10:54:02.531Z,5
2019-03-16T10:55:01.671Z,3
2019-03-16T10:56:01.894Z,4
2019-03-16T10:57:04.773Z,4
2019-03-16T10:58:02.390Z,4
2019-03-16T10:59:02.604Z,4
2019-03-16T11:00:03.842Z,5
2019-03-16T11:04:48.065Z,5
2019-03-16T11:05:01.892Z,5
2019-03-16T11:05:07.555Z,5
2019-03-16T11:05:15.656Z,5
2019-03-16T11:07:02.071Z,5
2019-03-16T11:08:02.378Z,6
2019-03-16T11:08:14.788Z,5
2019-03-16T11:09:02.596Z,4
2019-03-16T11:10:01.828Z,4
2019-03-16T11:11:02.060Z,4
2019-03-16T11:12:02.196Z,4
2019-03-16T11:13:02.392Z,4
2019-03-16T11:14:07.776Z,5
2019-03-16T11:15:01.888Z,5
2019-03-16T11:16:02.038Z,3
2019-03-16T11:17:02.197Z,6
2019-03-16T11:18:02.398Z,7
2019-03-16T11:19:02.529Z,5
2019-03-16T11:20:01.810Z,3
2019-03-16T11:21:01.971Z,5
2019-03-16T11:22:02.227Z,4
2019-03-16T11:23:02.389Z,2
2019-03-16T11:24:02.547Z,5
2019-03-16T11:25:02.045Z,5
2019-03-16T11:26:02.206Z,5
2019-03-16T11:27:02.416Z,4
2019-03-16T11:28:01.915Z,3
2019-03-16T11:29:09.755Z,7
2019-03-16T11:30:02.420Z,4
2019-03-16T11:31:01.595Z,4
2019-03-16T11:32:01.762Z,5
2019-03-16T11:33:01.939Z,4
2019-03-16T11:34:02.100Z,6
2019-03-16T11:35:02.434Z,3
2019-03-16T11:36:02.517Z,4
2019-03-16T11:37:01.720Z,4
2019-03-16T11:38:01.922Z,6
2019-03-16T11:39:02.053Z,4
2019-03-16T11:40:02.329Z,3
2019-03-16T11:41:02.680Z,5
2019-03-16T11:42:02.526Z,3
2019-03-16T11:43:02.197Z,7
2019-03-16T11:44:01.932Z,6
2019-03-16T11:45:02.238Z,4
2019-03-16T11:46:03.333Z,4
2019-03-16T11:47:02.542Z,5
2019-03-16T11:48:01.754Z,4
2019-03-16T11:49:01.948Z,6
2019-03-16T11:50:02.168Z,7
2019-03-16T11:51:02.329Z,4
2019-03-16T11:52:02.484Z,4
2019-03-16T11:53:01.675Z,5
2019-03-16T11:54:01.867Z,6
2019-03-16T11:55:02.112Z,7
2019-03-16T11:56:02.246Z,6
2019-03-16T11:57:02.437Z,9
2019-03-16T11:58:01.605Z,4
2019-03-16T11:59:01.928Z,5
2019-03-16T12:00:05.168Z,5
2019-03-16T12:01:01.992Z,4
2019-03-16T12:02:06.260Z,4
2019-03-16T12:03:02.361Z,4
2019-03-16T12:04:01.572Z,3
2019-03-16T12:05:02.580Z,6
2019-03-16T12:06:02.000Z,5
2019-03-16T12:07:02.272Z,3
2019-03-16T12:08:02.482Z,4
2019-03-16T12:09:01.711Z,5
2019-03-16T12:10:02.016Z,6
2019-03-16T12:11:02.183Z,6
2019-03-16T12:12:02.387Z,3
2019-03-16T12:13:01.883Z,6
2019-03-16T12:14:01.846Z,4
2019-03-16T12:15:02.115Z,3
2019-03-16T12:16:02.564Z,4
2019-03-16T12:17:02.506Z,4
2019-03-16T12:18:01.714Z,6
2019-03-16T12:19:01.958Z,3
2019-03-16T12:20:02.651Z,2
2019-03-16T12:21:02.339Z,5
2019-03-16T12:22:02.634Z,4
2019-03-16T12:23:01.844Z,5
2019-03-16T12:24:02.112Z,5
2019-03-16T12:25:02.383Z,5
2019-03-16T12:26:02.488Z,6
2019-03-16T12:27:01.732Z,6
2019-03-16T12:28:01.892Z,6
2019-03-16T12:29:02.074Z,4
2019-03-16T12:30:02.384Z,5
2019-03-16T12:31:02.497Z,5
2019-03-16T12:32:01.694Z,6
2019-03-16T12:33:01.977Z,9
2019-03-16T12:34:02.201Z,7
2019-03-16T12:35:02.514Z,7
2019-03-16T12:36:01.653Z,6
2019-03-16T12:37:01.858Z,5
2019-03-16T12:38:02.001Z,5
2019-03-16T12:39:02.223Z,3
2019-03-16T12:40:02.509Z,6
2019-03-16T12:41:01.665Z,6
2019-03-16T12:42:01.829Z,8
2019-03-16T12:43:02.099Z,7
2019-03-16T12:44:02.310Z,5
2019-03-16T12:45:02.694Z,7
2019-03-16T12:46:01.773Z,8
2019-03-16T12:47:01.983Z,10
2019-03-16T12:48:01.901Z,7
2019-03-16T12:49:02.093Z,5
2019-03-16T12:50:02.411Z,8
2019-03-16T12:51:02.503Z,7
2019-03-16T12:52:01.761Z,7
2019-03-16T12:53:01.967Z,8
2019-03-16T12:54:02.130Z,7
2019-03-16T12:55:02.507Z,5
2019-03-16T12:56:01.650Z,9
2019-03-16T12:57:01.822Z,8
2019-03-16T12:58:02.075Z,8
2019-03-16T12:59:11.258Z,5
2019-03-16T13:00:03.508Z,7
2019-03-16T13:01:02.244Z,7
2019-03-16T13:02:02.457Z,11
2019-03-16T13:03:01.583Z,8
2019-03-16T13:04:01.833Z,8
2019-03-16T13:05:02.199Z,5
2019-03-16T13:06:02.490Z,7
2019-03-16T13:07:02.588Z,6
2019-03-16T13:08:01.806Z,6
2019-03-16T13:09:02.081Z,7
2019-03-16T13:10:02.363Z,5
2019-03-16T13:11:01.691Z,5
2019-03-16T13:12:01.847Z,5
2019-03-16T13:13:02.085Z,5
2019-03-16T13:14:02.299Z,8
2019-03-16T13:15:01.770Z,5
2019-03-16T13:16:02.036Z,5
2019-03-16T13:17:02.192Z,4
2019-03-16T13:18:01.654Z,4
2019-03-16T13:19:01.823Z,4
2019-03-16T13:20:02.041Z,7
2019-03-16T13:21:01.882Z,7
2019-03-16T13:22:01.913Z,6
2019-03-16T13:23:02.128Z,8
2019-03-16T13:24:02.350Z,6
2019-03-16T13:25:02.585Z,7
2019-03-16T13:26:01.877Z,6
2019-03-16T13:27:02.605Z,6
2019-03-16T13:28:01.851Z,5
2019-03-16T13:29:02.098Z,6
2019-03-16T13:30:02.330Z,4
2019-03-16T13:31:07.146Z,6
2019-03-16T13:32:01.746Z,5
2019-03-16T13:33:01.947Z,6
2019-03-16T13:34:02.190Z,3
2019-03-16T13:35:02.522Z,5
2019-03-16T13:36:01.700Z,4
2019-03-16T13:37:02.670Z,5
2019-03-16T13:38:01.878Z,4
2019-03-16T13:39:02.050Z,9
2019-03-16T13:40:02.272Z,5
2019-03-16T13:41:02.531Z,6
2019-03-16T13:42:02.493Z,4
2019-03-16T13:43:35.123Z,4
2019-03-16T13:44:02.496Z,4
2019-03-16T13:45:01.666Z,4
2019-03-16T13:46:01.987Z,3
2019-03-16T13:47:02.037Z,6
2019-03-16T13:48:02.287Z,5
2019-03-16T13:49:02.510Z,6
2019-03-16T13:50:01.897Z,6
2019-03-16T13:51:02.075Z,4
2019-03-16T13:52:02.207Z,6
2019-03-16T13:53:02.213Z,3
2019-03-16T13:54:05.120Z,4
2019-03-16T13:55:02.055Z,2
2019-03-16T13:56:01.953Z,6
2019-03-16T13:57:02.105Z,6
2019-03-16T13:58:02.347Z,4
2019-03-16T13:59:02.745Z,6
2019-03-16T14:00:12.719Z,5
2019-03-16T14:01:02.552Z,5
2019-03-16T14:02:01.988Z,4
2019-03-16T14:03:01.974Z,4
2019-03-16T14:04:03.559Z,5
2019-03-16T14:05:02.695Z,5
2019-03-16T14:06:07.084Z,3
2019-03-16T14:07:01.785Z,4
2019-03-16T14:08:02.331Z,4
2019-03-16T14:09:02.261Z,4
2019-03-16T14:10:02.597Z,7
2019-03-16T14:11:01.962Z,1
2019-03-16T14:12:01.957Z,4
2019-03-16T14:13:02.445Z,4
2019-03-16T14:14:01.689Z,3
2019-03-16T14:15:02.193Z,2
2019-03-16T14:16:02.000Z,4
2019-03-16T14:17:02.268Z,4
2019-03-16T14:18:02.570Z,3
2019-03-16T14:19:01.758Z,4
2019-03-16T14:20:02.022Z,2
2019-03-16T14:21:02.192Z,5
2019-03-16T14:22:02.457Z,3
2019-03-16T14:23:01.839Z,5
2019-03-16T14:24:01.933Z,2
2019-03-16T14:25:02.253Z,4
2019-03-16T14:26:02.467Z,4
2019-03-16T14:27:01.705Z,5
2019-03-16T14:28:01.993Z,4
2019-03-16T14:29:02.149Z,6
2019-03-16T14:30:02.168Z,3
2019-03-16T14:31:02.459Z,4
2019-03-16T14:32:02.621Z,4
2019-03-16T14:33:01.904Z,2
2019-03-16T14:34:02.054Z,5
2019-03-16T14:35:01.944Z,4
2019-03-16T14:36:02.212Z,3
2019-03-16T14:37:02.314Z,1
2019-03-16T14:38:02.532Z,3
2019-03-16T14:39:01.727Z,4
2019-03-16T14:40:02.149Z,1
2019-03-16T14:41:02.410Z,2
2019-03-16T14:42:02.591Z,3
2019-03-16T14:43:02.108Z,4
2019-03-16T14:44:02.081Z,4
2019-03-16T14:45:02.323Z,3
2019-03-16T14:46:06.077Z,4
2019-03-16T14:47:01.733Z,4
2019-03-16T14:48:38.610Z,3